Time;durP1;ratioP1;P1;durP2;ratioP2;P2;SDS_P1;SDS_P2;PMS_P1;PMS_P2;Temp;Humidity;BMP_temperature;BMP_pressure;BME280_temperature;BME280_humidity;BME280_pressure;Samples;Min_cycle;Max_cycle;Signal;HPM_P1;HPM_P2
2023/07/19 00:01:38;;;;;;;5.77;3.90;;;19.30;98.00;;;;;;5015039;28;20454;-69
2023/07/19 00:04:06;;;;;;;7.77;3.90;;;19.20;98.00;;;;;;5032814;28;20474;-69
2023/07/19 00:06:36;;;;;;;6.40;4.13;;;19.10;98.00;;;;;;5031768;28;20463;-69
2023/07/19 00:09:03;;;;;;;7.57;3.87;;;19.00;98.00;;;;;;4999247;28;20501;-69
2023/07/19 00:11:30;;;;;;;7.70;3.70;;;19.00;98.00;;;;;;5032261;28;20463;-69
2023/07/19 00:13:59;;;;;;;7.07;4.03;;;19.00;98.00;;;;;;5032382;28;20462;-69
2023/07/19 00:16:27;;;;;;;6.70;3.77;;;19.10;98.00;;;;;;5032327;28;20961;-69
2023/07/19 00:18:54;;;;;;;8.10;3.90;;;19.20;98.00;;;;;;5015014;28;20490;-69
2023/07/19 00:21:22;;;;;;;5.50;3.60;;;19.10;98.00;;;;;;5032211;28;20972;-69
2023/07/19 00:23:50;;;;;;;6.27;3.27;;;18.90;98.00;;;;;;5032445;28;20466;-69
2023/07/19 00:26:18;;;;;;;11.87;4.00;;;18.90;98.00;;;;;;5032432;28;20509;-69
2023/07/19 00:28:45;;;;;;;7.53;4.17;;;18.90;98.00;;;;;;5032232;28;20459;-69
2023/07/19 00:31:13;;;;;;;7.27;3.73;;;19.00;98.00;;;;;;5032023;28;20458;-69
2023/07/19 00:33:40;;;;;;;10.03;4.30;;;18.90;98.00;;;;;;5031933;28;20953;-69
2023/07/19 00:36:09;;;;;;;8.40;3.80;;;18.90;98.00;;;;;;5014565;28;20455;-69
2023/07/19 00:38:36;;;;;;;7.53;4.07;;;18.90;98.00;;;;;;5031730;28;20510;-69
2023/07/19 00:41:03;;;;;;;7.50;3.80;;;19.00;98.00;;;;;;5014464;28;20451;-69
2023/07/19 00:43:30;;;;;;;5.63;3.50;;;19.10;98.00;;;;;;5031738;28;20466;-69
2023/07/19 00:45:58;;;;;;;6.67;3.90;;;19.20;98.00;;;;;;5031831;28;20829;-69
2023/07/19 00:48:27;;;;;;;6.90;4.10;;;19.20;98.00;;;;;;5014149;28;20827;-70
2023/07/19 00:50:55;;;;;;;5.20;3.70;;;19.20;98.00;;;;;;5031740;28;20462;-69
2023/07/19 00:53:25;;;;;;;6.80;3.87;;;19.00;98.00;;;;;;5031620;28;20458;-69
2023/07/19 00:55:53;;;;;;;8.30;4.27;;;19.00;98.00;;;;;;5031488;28;20500;-69
2023/07/19 00:58:24;;;;;;;7.97;4.10;;;18.80;98.00;;;;;;5031426;28;20494;-69
2023/07/19 01:00:53;;;;;;;7.00;3.83;;;18.80;98.00;;;;;;5031852;28;20494;-69
2023/07/19 01:03:20;;;;;;;6.70;4.10;;;18.70;98.00;;;;;;5031474;28;20965;-69
2023/07/19 01:05:49;;;;;;;6.50;3.90;;;18.80;98.00;;;;;;5031495;28;20537;-69
2023/07/19 01:08:18;;;;;;;7.67;3.73;;;18.80;98.00;;;;;;5031665;28;20458;-69
2023/07/19 01:10:45;;;;;;;6.27;3.73;;;18.70;98.00;;;;;;5031613;28;20455;-69
2023/07/19 01:13:13;;;;;;;7.50;4.30;;;18.70;98.00;;;;;;5031412;28;20968;-69
2023/07/19 01:15:41;;;;;;;6.33;3.80;;;18.60;98.00;;;;;;5031435;28;20998;-69
2023/07/19 01:18:08;;;;;;;14.23;4.23;;;18.60;98.00;;;;;;5030769;28;20459;-69
2023/07/19 01:20:35;;;;;;;6.80;3.63;;;18.60;98.00;;;;;;5031147;28;20451;-69
2023/07/19 01:23:04;;;;;;;6.37;3.50;;;18.70;98.00;;;;;;5013818;28;20459;-69
2023/07/19 01:25:32;;;;;;;6.50;3.73;;;18.80;98.00;;;;;;5031404;28;20458;-69
2023/07/19 01:28:00;;;;;;;8.83;3.83;;;18.90;98.00;;;;;;5031221;28;20981;-69
2023/07/19 01:30:27;;;;;;;8.60;4.20;;;19.10;98.00;;;;;;5031516;28;20463;-69
2023/07/19 01:32:54;;;;;;;6.80;3.77;;;19.20;98.00;;;;;;5031589;28;20969;-69
2023/07/19 01:35:22;;;;;;;6.60;4.13;;;19.20;98.00;;;;;;5031578;28;20553;-69
2023/07/19 01:37:51;;;;;;;6.03;3.80;;;19.20;98.00;;;;;;5031591;28;20462;-69
2023/07/19 01:40:19;;;;;;;9.97;4.60;;;19.00;98.00;;;;;;5031064;28;20988;-69
2023/07/19 01:42:47;;;;;;;7.00;3.97;;;18.90;98.00;;;;;;5030979;28;20451;-69
2023/07/19 01:45:14;;;;;;;6.03;3.30;;;18.90;98.00;;;;;;5031011;28;20473;-69
2023/07/19 01:47:41;;;;;;;7.40;3.90;;;18.80;98.00;;;;;;5031139;28;20485;-69
2023/07/19 01:50:09;;;;;;;6.73;4.20;;;18.80;98.00;;;;;;5013660;28;20465;-69
2023/07/19 01:52:36;;;;;;;8.07;4.50;;;19.00;98.00;;;;;;5031478;28;20497;-69
2023/07/19 01:55:03;;;;;;;7.00;4.30;;;18.90;98.00;;;;;;5031884;28;20478;-69
2023/07/19 01:57:32;;;;;;;8.30;4.60;;;19.00;98.00;;;;;;5014334;28;20458;-69
2023/07/19 02:00:00;;;;;;;10.17;4.17;;;19.00;98.00;;;;;;5031574;28;20487;-69
2023/07/19 02:02:28;;;;;;;8.70;4.27;;;19.00;98.00;;;;;;5031047;28;21207;-69
2023/07/19 02:04:56;;;;;;;7.97;4.53;;;19.10;98.00;;;;;;5031771;28;20478;-69
2023/07/19 02:07:23;;;;;;;9.50;4.17;;;19.10;98.00;;;;;;5014692;28;20527;-69
2023/07/19 02:09:53;;;;;;;7.97;4.17;;;18.90;98.00;;;;;;5032035;28;20459;-69
2023/07/19 02:12:20;;;;;;;9.33;4.40;;;18.70;98.00;;;;;;5031554;28;20455;-69
2023/07/19 02:14:50;;;;;;;7.27;4.00;;;18.80;98.00;;;;;;5031206;28;20702;-69
2023/07/19 02:17:19;;;;;;;6.77;3.73;;;18.70;98.00;;;;;;5031161;28;20466;-69
2023/07/19 02:19:46;;;;;;;6.67;3.90;;;18.60;98.00;;;;;;5030887;28;20483;-69
2023/07/19 02:22:15;;;;;;;8.20;4.13;;;18.70;98.00;;;;;;5013395;28;20463;-69
2023/07/19 02:24:43;;;;;;;7.30;3.70;;;18.50;98.00;;;;;;5013303;28;20983;-69
2023/07/19 02:27:11;;;;;;;6.87;3.53;;;18.60;98.00;;;;;;5030750;28;20469;-69
2023/07/19 02:29:38;;;;;;;8.73;3.90;;;18.40;98.00;;;;;;5013684;28;20462;-69
2023/07/19 02:32:07;;;;;;;7.80;3.70;;;18.30;98.00;;;;;;5034451;28;20470;-69
2023/07/19 02:34:35;;;;;;;7.30;4.20;;;18.30;98.00;;;;;;5034225;28;20462;-69
2023/07/19 02:37:02;;;;;;;22.50;4.30;;;18.40;98.00;;;;;;5034261;28;20856;-69
2023/07/19 02:39:30;;;;;;;8.00;3.80;;;18.60;98.00;;;;;;5034029;28;20491;-69
2023/07/19 02:41:57;;;;;;;5.33;3.50;;;18.60;98.00;;;;;;5016817;28;20534;-69
2023/07/19 02:44:24;;;;;;;8.73;4.27;;;18.60;98.00;;;;;;5016652;28;20900;-69
2023/07/19 02:46:51;;;;;;;6.60;3.97;;;18.80;98.00;;;;;;5000384;28;20459;-70
2023/07/19 02:49:20;;;;;;;7.17;4.37;;;18.80;98.00;;;;;;5034121;28;20458;-69
2023/07/19 02:51:47;;;;;;;6.37;3.80;;;19.00;98.00;;;;;;5033854;28;20458;-69
2023/07/19 02:54:14;;;;;;;8.30;4.23;;;18.90;98.00;;;;;;5016307;28;20972;-69
2023/07/19 02:56:41;;;;;;;7.70;4.23;;;19.00;98.00;;;;;;5016444;28;20558;-69
2023/07/19 02:59:09;;;;;;;7.73;3.77;;;18.90;98.00;;;;;;5033640;28;20989;-69
2023/07/19 03:01:37;;;;;;;8.20;4.27;;;18.80;98.00;;;;;;5033811;28;20499;-69
2023/07/19 03:04:06;;;;;;;6.27;3.83;;;18.80;98.00;;;;;;5033694;28;21007;-69
2023/07/19 03:06:36;;;;;;;7.60;4.03;;;18.60;98.00;;;;;;5033799;28;20871;-69
2023/07/19 03:09:03;;;;;;;6.90;3.83;;;18.40;98.00;;;;;;5033887;28;20451;-69
2023/07/19 03:11:30;;;;;;;8.13;4.53;;;18.30;98.00;;;;;;5033728;28;20467;-69
2023/07/19 03:13:57;;;;;;;7.07;4.10;;;18.30;98.00;;;;;;5033697;28;20459;-69
2023/07/19 03:16:24;;;;;;;6.80;3.80;;;18.30;98.00;;;;;;5016080;28;20815;-69
2023/07/19 03:18:51;;;;;;;7.63;4.43;;;18.30;98.00;;;;;;5033222;28;20464;-69
2023/07/19 03:21:20;;;;;;;7.07;3.80;;;18.30;98.00;;;;;;5015981;28;20834;-69
2023/07/19 03:23:48;;;;;;;6.23;3.80;;;18.30;98.00;;;;;;5033325;28;20453;-69
2023/07/19 03:26:15;;;;;;;7.70;4.47;;;18.40;98.00;;;;;;5033413;28;20831;-69
2023/07/19 03:28:42;;;;;;;9.10;4.27;;;18.40;98.00;;;;;;5033190;28;20458;-69
2023/07/19 03:31:12;;;;;;;7.50;4.63;;;18.40;98.00;;;;;;5033429;28;20454;-69
2023/07/19 03:33:40;;;;;;;6.10;3.77;;;18.30;98.00;;;;;;5033041;28;20458;-69
2023/07/19 03:36:07;;;;;;;6.43;3.63;;;18.20;98.00;;;;;;5033443;28;20515;-69
2023/07/19 03:38:34;;;;;;;8.33;4.23;;;18.20;98.00;;;;;;5032982;28;20872;-69
2023/07/19 03:41:10;;;;;;;8.80;4.10;;;18.10;98.00;;;;;;5032405;28;20522;-69
2023/07/19 03:43:37;;;;;;;6.63;4.30;;;18.10;98.00;;;;;;5032613;28;20463;-69
2023/07/19 03:46:08;;;;;;;7.37;4.20;;;18.00;98.00;;;;;;5032732;28;20461;-69
2023/07/19 03:48:37;;;;;;;6.30;3.80;;;17.90;98.00;;;;;;5032742;28;20454;-69
2023/07/19 03:51:04;;;;;;;6.13;3.80;;;17.80;98.00;;;;;;5033031;28;20953;-69
2023/07/19 03:53:31;;;;;;;8.87;4.27;;;17.90;98.00;;;;;;5032469;28;20451;-69
2023/07/19 03:55:59;;;;;;;9.00;4.37;;;17.90;98.00;;;;;;5032827;28;20455;-69
2023/07/19 03:58:29;;;;;;;10.30;4.53;;;17.90;98.00;;;;;;5032580;28;20462;-69
2023/07/19 04:00:57;;;;;;;8.33;4.50;;;17.80;98.00;;;;;;5015281;28;20490;-69
2023/07/19 04:03:26;;;;;;;8.90;3.80;;;17.80;98.00;;;;;;5032835;28;20469;-69
2023/07/19 04:05:54;;;;;;;10.60;3.87;;;17.70;98.00;;;;;;5032541;28;20458;-69
2023/07/19 04:08:22;;;;;;;7.40;3.87;;;17.80;98.00;;;;;;5032455;28;20454;-69
2023/07/19 04:10:49;;;;;;;6.50;3.80;;;17.90;98.00;;;;;;5014640;28;20521;-69
2023/07/19 04:13:16;;;;;;;7.50;4.33;;;17.90;98.00;;;;;;5032446;28;20447;-69
2023/07/19 04:15:45;;;;;;;5.87;3.87;;;17.90;98.00;;;;;;5032409;28;20458;-69
2023/07/19 04:18:12;;;;;;;7.20;3.90;;;17.80;98.00;;;;;;5032024;28;20987;-69
2023/07/19 04:20:39;;;;;;;7.10;4.27;;;17.90;98.00;;;;;;5014757;28;20482;-69
2023/07/19 04:23:06;;;;;;;7.73;4.27;;;18.00;98.00;;;;;;5014568;28;20968;-69
2023/07/19 04:25:34;;;;;;;5.33;3.60;;;18.10;98.00;;;;;;5032109;28;20462;-69
2023/07/19 04:28:01;;;;;;;6.60;3.60;;;18.10;98.00;;;;;;5032058;28;20473;-69
2023/07/19 04:30:28;;;;;;;6.67;4.07;;;18.10;98.00;;;;;;5014617;28;20458;-69
2023/07/19 04:32:57;;;;;;;5.87;3.40;;;18.00;98.00;;;;;;5031902;28;20455;-69
2023/07/19 04:35:24;;;;;;;6.63;3.97;;;18.00;98.00;;;;;;5032217;28;20474;-69
2023/07/19 04:37:51;;;;;;;9.10;3.87;;;18.00;98.00;;;;;;5031926;28;20462;-69
2023/07/19 04:40:19;;;;;;;5.40;3.60;;;18.10;98.00;;;;;;5031848;28;20513;-69
2023/07/19 04:42:46;;;;;;;7.33;4.00;;;18.30;98.00;;;;;;5031735;28;20462;-69
2023/07/19 04:45:14;;;;;;;5.17;3.50;;;18.40;98.00;;;;;;5031882;28;20453;-69
2023/07/19 04:47:43;;;;;;;9.10;4.10;;;18.40;98.00;;;;;;5031544;28;20454;-69
2023/07/19 04:50:12;;;;;;;7.13;3.90;;;18.30;98.00;;;;;;5031794;28;20458;-69
2023/07/19 04:52:39;;;;;;;6.80;4.20;;;18.30;98.00;;;;;;5013803;28;20455;-69
2023/07/19 04:55:07;;;;;;;9.90;3.80;;;18.40;98.00;;;;;;5031634;28;20470;-69
2023/07/19 04:57:34;;;;;;;9.20;4.33;;;18.40;98.00;;;;;;5031709;28;20536;-69
2023/07/19 05:00:04;;;;;;;7.70;3.83;;;18.60;98.00;;;;;;5014189;28;20490;-69
2023/07/19 05:02:31;;;;;;;6.80;3.80;;;18.50;98.00;;;;;;5031490;28;20470;-69
2023/07/19 05:04:58;;;;;;;7.10;4.00;;;18.60;98.00;;;;;;5031399;28;20462;-69
2023/07/19 05:07:28;;;;;;;7.57;3.77;;;18.60;98.00;;;;;;5030924;28;20524;-69
2023/07/19 05:09:56;;;;;;;6.93;4.37;;;18.60;98.00;;;;;;5031709;28;20546;-69
2023/07/19 05:12:23;;;;;;;9.70;4.40;;;18.70;98.00;;;;;;5031491;28;20454;-69
2023/07/19 05:14:50;;;;;;;8.07;4.53;;;18.60;98.00;;;;;;4997968;28;20900;-69
2023/07/19 05:17:17;;;;;;;6.43;3.80;;;18.70;98.00;;;;;;5031216;28;20459;-69
2023/07/19 05:19:45;;;;;;;6.90;4.10;;;18.70;98.00;;;;;;5031215;28;20490;-69
2023/07/19 05:22:12;;;;;;;10.17;4.20;;;18.80;98.00;;;;;;5031314;28;20466;-69
2023/07/19 05:24:40;;;;;;;7.67;4.50;;;18.90;98.00;;;;;;5031327;28;20466;-69
2023/07/19 05:27:08;;;;;;;6.70;4.20;;;19.00;98.00;;;;;;5031254;28;20458;-69
2023/07/19 05:29:36;;;;;;;9.63;4.70;;;19.00;98.00;;;;;;5013907;28;21121;-69
2023/07/19 05:32:03;;;;;;;8.47;4.70;;;19.00;98.00;;;;;;5013950;28;20455;-69
2023/07/19 05:34:32;;;;;;;9.83;5.10;;;19.10;98.00;;;;;;5031094;28;20456;-70
2023/07/19 05:36:59;;;;;;;9.50;5.20;;;19.10;98.00;;;;;;5014023;28;20459;-69
2023/07/19 05:39:26;;;;;;;6.87;4.10;;;19.20;98.00;;;;;;5031102;28;20466;-69
2023/07/19 05:41:55;;;;;;;8.37;4.70;;;19.20;98.00;;;;;;5031211;28;20454;-69
2023/07/19 05:44:22;;;;;;;9.00;5.23;;;19.30;98.00;;;;;;5031125;28;20490;-69
2023/07/19 05:46:49;;;;;;;7.77;4.47;;;19.30;98.00;;;;;;4997197;28;20470;-69
2023/07/19 05:49:18;;;;;;;9.83;4.47;;;19.30;98.00;;;;;;5031232;28;20458;-70
2023/07/19 05:51:46;;;;;;;9.23;4.10;;;19.40;98.00;;;;;;5031314;28;20466;-69
2023/07/19 05:54:14;;;;;;;10.33;5.17;;;19.40;98.00;;;;;;5030875;28;20465;-69
2023/07/19 05:56:41;;;;;;;8.10;4.80;;;19.50;98.00;;;;;;5030890;28;20450;-69
2023/07/19 05:59:09;;;;;;;6.43;4.07;;;19.50;98.00;;;;;;5030727;28;20465;-70
2023/07/19 06:01:36;;;;;;;6.50;4.30;;;19.60;98.00;;;;;;5030799;28;20520;-69
2023/07/19 06:04:04;;;;;;;7.60;4.90;;;19.70;98.00;;;;;;5030736;28;20452;-70
2023/07/19 06:06:33;;;;;;;9.50;4.93;;;19.80;98.00;;;;;;5034390;28;20462;-69
2023/07/19 06:09:01;;;;;;;7.47;4.67;;;20.00;98.00;;;;;;5034164;28;20450;-62
2023/07/19 06:11:28;;;;;;;9.67;5.13;;;20.10;98.00;;;;;;5034659;28;20560;-61
2023/07/19 06:13:55;;;;;;;8.07;4.80;;;20.20;98.00;;;;;;5034469;28;20458;-61
2023/07/19 06:16:24;;;;;;;7.47;4.20;;;20.40;98.00;;;;;;5034556;28;20466;-61
2023/07/19 06:18:51;;;;;;;6.93;4.40;;;20.40;98.00;;;;;;5034453;28;20466;-61
2023/07/19 06:21:19;;;;;;;7.87;4.30;;;20.40;98.00;;;;;;5034442;28;20521;-61
2023/07/19 06:23:47;;;;;;;9.50;4.40;;;20.60;98.00;;;;;;5016793;28;20450;-61
2023/07/19 06:26:14;;;;;;;7.40;4.57;;;20.60;98.00;;;;;;5034478;28;20462;-61
2023/07/19 06:28:41;;;;;;;9.17;4.97;;;20.60;98.00;;;;;;5034267;28;20484;-61
2023/07/19 06:31:08;;;;;;;7.20;4.37;;;20.70;98.00;;;;;;5034441;28;20504;-61
2023/07/19 06:33:36;;;;;;;8.00;4.50;;;20.70;98.00;;;;;;5034217;28;20461;-61
2023/07/19 06:36:03;;;;;;;6.90;4.27;;;20.80;98.00;;;;;;5034339;28;20463;-61
2023/07/19 06:38:31;;;;;;;6.93;4.23;;;20.80;98.00;;;;;;5034148;28;20459;-61
2023/07/19 06:41:07;;;;;;;7.57;4.07;;;21.10;98.00;;;;;;5034120;28;20482;-61
2023/07/19 06:43:35;;;;;;;6.93;3.90;;;21.20;98.00;;;;;;5016614;28;20469;-61
2023/07/19 06:46:16;;;;;;;6.83;4.00;;;21.30;98.00;;;;;;5034459;28;20888;-61
2023/07/19 06:48:45;;;;;;;5.37;3.70;;;21.40;98.00;;;;;;5033976;28;20451;-61
2023/07/19 06:51:12;;;;;;;7.50;4.30;;;21.50;98.00;;;;;;5034169;28;20458;-61
2023/07/19 06:53:40;;;;;;;10.73;4.30;;;21.60;98.00;;;;;;5034189;28;20504;-61
2023/07/19 06:56:07;;;;;;;8.27;4.30;;;21.70;98.00;;;;;;5034624;28;20517;-61
2023/07/19 06:58:39;;;;;;;7.87;4.40;;;21.90;98.00;;;;;;5016839;28;20462;-61
2023/07/19 07:01:07;;;;;;;7.77;4.10;;;21.90;98.00;;;;;;5034441;28;20494;-61
2023/07/19 07:03:34;;;;;;;6.67;3.87;;;22.00;98.00;;;;;;5034405;28;20542;-61
2023/07/19 07:06:03;;;;;;;7.43;3.97;;;22.00;98.00;;;;;;5034355;28;20979;-61
2023/07/19 07:08:31;;;;;;;9.20;4.57;;;22.20;98.00;;;;;;5034314;28;20454;-61
2023/07/19 07:11:00;;;;;;;7.00;4.00;;;22.30;98.00;;;;;;5017003;28;20964;-61
2023/07/19 07:13:28;;;;;;;8.53;3.87;;;22.40;98.00;;;;;;5034156;28;20482;-61
2023/07/19 07:15:55;;;;;;;9.27;4.50;;;22.50;98.00;;;;;;5034276;28;21071;-61
2023/07/19 07:18:22;;;;;;;7.63;4.13;;;22.60;98.00;;;;;;5034081;28;20458;-61
2023/07/19 07:20:52;;;;;;;9.17;4.13;;;22.60;98.00;;;;;;5034065;28;21031;-61
2023/07/19 07:23:21;;;;;;;6.60;3.67;;;22.70;98.00;;;;;;5033943;28;20494;-61
2023/07/19 07:25:53;;;;;;;6.30;3.53;;;22.80;98.00;;;;;;5034288;28;20459;-61
2023/07/19 07:28:20;;;;;;;9.43;4.00;;;22.90;98.00;;;;;;5034047;28;20962;-61
2023/07/19 07:30:47;;;;;;;6.63;3.77;;;23.00;98.00;;;;;;5033741;28;20834;-61
2023/07/19 07:33:15;;;;;;;7.00;4.10;;;23.10;98.00;;;;;;5033312;28;20466;-61
2023/07/19 07:35:42;;;;;;;7.10;4.00;;;23.10;98.00;;;;;;5033254;28;20462;-61
2023/07/19 07:38:09;;;;;;;6.67;3.80;;;23.20;98.00;;;;;;5033418;28;20461;-61
2023/07/19 07:40:38;;;;;;;7.33;3.97;;;23.30;98.00;;;;;;5031896;28;20486;-61
2023/07/19 07:43:05;;;;;;;7.37;4.10;;;23.50;98.00;;;;;;5032912;28;20487;-61
2023/07/19 07:45:32;;;;;;;7.53;4.33;;;23.60;98.00;;;;;;5032457;28;20463;-61
2023/07/19 07:48:00;;;;;;;6.80;4.00;;;23.60;98.00;;;;;;5032802;28;20454;-61
2023/07/19 07:50:27;;;;;;;8.20;4.50;;;23.70;98.00;;;;;;5032515;28;20469;-61
2023/07/19 07:52:54;;;;;;;6.70;4.13;;;23.80;98.00;;;;;;4999253;28;20859;-61
2023/07/19 07:55:21;;;;;;;6.83;3.83;;;23.80;98.00;;;;;;5015026;28;20523;-61
2023/07/19 07:57:50;;;;;;;7.30;4.20;;;23.90;98.00;;;;;;5032608;28;20455;-61
2023/07/19 08:00:19;;;;;;;8.00;4.07;;;24.10;98.00;;;;;;5032307;28;20478;-61
2023/07/19 08:02:46;;;;;;;8.10;4.40;;;24.20;98.00;;;;;;5032365;28;20470;-61
2023/07/19 08:05:13;;;;;;;7.40;4.87;;;24.20;98.00;;;;;;5014514;28;20470;-61
2023/07/19 08:07:41;;;;;;;8.40;4.10;;;24.20;98.00;;;;;;5032309;28;20462;-62
2023/07/19 08:10:10;;;;;;;6.60;4.03;;;24.20;98.00;;;;;;5032324;28;20469;-61
2023/07/19 08:12:37;;;;;;;6.00;4.10;;;24.30;98.00;;;;;;5031945;28;20458;-61
2023/07/19 08:15:07;;;;;;;6.70;4.00;;;24.40;98.00;;;;;;5031802;28;20465;-61
2023/07/19 08:17:34;;;;;;;8.10;3.70;;;24.50;98.00;;;;;;5031107;28;20447;-66
2023/07/19 08:20:01;;;;;;;8.93;4.13;;;24.70;98.00;;;;;;5032351;28;20455;-66
2023/07/19 08:22:30;;;;;;;7.10;4.00;;;24.80;98.00;;;;;;5032122;28;20489;-64
2023/07/19 08:24:57;;;;;;;7.13;4.10;;;24.90;98.00;;;;;;5014678;28;20471;-65
2023/07/19 08:27:24;;;;;;;9.67;4.07;;;25.00;98.00;;;;;;5031443;28;20642;-65
2023/07/19 08:29:52;;;;;;;6.27;3.80;;;25.20;98.00;;;;;;5032084;28;20462;-63
2023/07/19 08:32:21;;;;;;;7.40;3.80;;;25.30;98.00;;;;;;5032282;28;20549;-63
2023/07/19 08:34:48;;;;;;;5.50;4.20;;;25.40;98.00;;;;;;5032034;28;20486;-62
2023/07/19 08:37:15;;;;;;;6.93;4.00;;;25.50;98.00;;;;;;5032016;28;20528;-63
2023/07/19 08:39:42;;;;;;;6.40;3.93;;;25.70;98.00;;;;;;5031770;28;20482;-63
2023/07/19 08:42:09;;;;;;;5.77;3.60;;;25.70;98.00;;;;;;5031757;28;20486;-64
2023/07/19 08:44:38;;;;;;;5.90;3.50;;;25.80;98.00;;;;;;5031667;28;20469;-64
2023/07/19 08:47:06;;;;;;;6.87;3.70;;;25.90;98.00;;;;;;5031720;28;20464;-64
2023/07/19 08:49:37;;;;;;;7.20;3.80;;;26.00;98.00;;;;;;5029161;28;20477;-64
2023/07/19 08:52:07;;;;;;;5.23;3.67;;;26.10;98.00;;;;;;5051525;28;20939;-64
2023/07/19 08:54:35;;;;;;;6.63;3.70;;;26.30;98.00;;;;;;5033621;28;20667;-62
2023/07/19 08:57:04;;;;;;;13.03;3.97;;;26.40;98.00;;;;;;5051473;28;20450;-64
2023/07/19 08:59:32;;;;;;;6.83;4.13;;;26.50;98.00;;;;;;5051355;28;20515;-65
2023/07/19 09:01:59;;;;;;;5.43;3.27;;;26.40;98.00;;;;;;5051457;28;20548;-63
2023/07/19 09:04:27;;;;;;;7.53;3.20;;;26.40;94.80;;;;;;5051496;28;20460;-64
2023/07/19 09:07:03;;;;;;;5.37;3.43;;;26.50;96.40;;;;;;5051189;28;20505;-64
2023/07/19 09:09:30;;;;;;;5.37;3.10;;;26.50;94.90;;;;;;5051146;28;20454;-64
2023/07/19 09:11:57;;;;;;;4.63;3.00;;;26.60;93.20;;;;;;5051349;28;20512;-64
2023/07/19 09:14:35;;;;;;;4.70;3.30;;;26.70;92.20;;;;;;5051138;28;20863;-63
2023/07/19 09:17:03;;;;;;;5.53;3.03;;;26.80;92.50;;;;;;5051236;28;20504;-62
2023/07/19 09:19:30;;;;;;;3.80;2.80;;;26.80;91.20;;;;;;5051061;28;21021;-64
2023/07/19 09:22:04;;;;;;;5.00;3.00;;;26.90;90.80;;;;;;5033667;28;20478;-63
2023/07/19 09:24:31;;;;;;;5.40;3.10;;;27.10;91.60;;;;;;5051031;28;20502;-65
2023/07/19 09:27:00;;;;;;;8.00;3.23;;;27.30;89.80;;;;;;5051476;28;20854;-65
2023/07/19 09:29:30;;;;;;;5.93;3.07;;;27.40;89.00;;;;;;5033393;28;20454;-65
2023/07/19 09:31:59;;;;;;;5.97;3.30;;;27.50;91.70;;;;;;5050688;28;20549;-65
2023/07/19 09:34:28;;;;;;;5.33;3.33;;;27.60;89.60;;;;;;5050683;28;20461;-66
2023/07/19 09:36:56;;;;;;;8.97;3.77;;;27.70;89.50;;;;;;5050958;28;20461;-63
2023/07/19 09:39:25;;;;;;;6.63;3.53;;;27.90;87.60;;;;;;5051043;28;20460;-63
2023/07/19 09:41:54;;;;;;;4.10;3.20;;;27.90;87.20;;;;;;5055460;28;20485;-62
2023/07/19 09:44:22;;;;;;;3.93;3.03;;;28.00;88.00;;;;;;5055634;28;20461;-63
2023/07/19 09:46:50;;;;;;;7.57;3.43;;;28.10;88.60;;;;;;5037972;28;20470;-62
2023/07/19 09:49:17;;;;;;;4.97;3.17;;;28.10;86.90;;;;;;5055558;28;20457;-62
2023/07/19 09:51:44;;;;;;;5.87;3.30;;;28.20;87.40;;;;;;5037415;28;20928;-62
2023/07/19 09:54:13;;;;;;;4.17;2.80;;;28.40;88.50;;;;;;5055395;28;20457;-62
2023/07/19 09:56:43;;;;;;;4.50;3.00;;;28.40;81.90;;;;;;5055485;28;20487;-62
2023/07/19 09:59:12;;;;;;;4.27;2.83;;;28.30;80.50;;;;;;5055262;28;20465;-62
2023/07/19 10:01:40;;;;;;;4.27;2.50;;;28.20;81.30;;;;;;5055262;28;20484;-63
2023/07/19 10:04:24;;;;;;;3.37;2.80;;;28.20;82.50;;;;;;5055374;28;20805;-64
2023/07/19 10:07:02;;;;;;;4.87;3.00;;;28.30;81.80;;;;;;5055392;28;20824;-63
2023/07/19 10:09:40;;;;;;;5.83;2.77;;;28.40;80.40;;;;;;5054921;28;20459;-65
2023/07/19 10:12:22;;;;;;;5.40;3.07;;;28.60;80.70;;;;;;5055477;28;20462;-64
2023/07/19 10:14:54;;;;;;;4.43;2.60;;;28.60;78.50;;;;;;5055048;28;20464;-64
2023/07/19 10:17:21;;;;;;;4.57;2.83;;;28.30;79.10;;;;;;5037705;28;20465;-64
2023/07/19 10:20:05;;;;;;;4.40;2.67;;;28.30;80.40;;;;;;5054982;28;20465;-65
2023/07/19 10:22:50;;;;;;;4.67;3.20;;;28.20;80.30;;;;;;5055038;28;20540;-62
2023/07/19 10:25:22;;;;;;;5.90;3.10;;;28.30;78.90;;;;;;5054589;28;20462;-62
2023/07/19 10:27:59;;;;;;;3.53;2.60;;;28.50;81.80;;;;;;5054817;28;21013;-62
2023/07/19 10:30:51;;;;;;;4.37;3.00;;;28.80;79.00;;;;;;5054448;28;20465;-62
2023/07/19 10:33:19;;;;;;;5.80;2.97;;;29.10;77.40;;;;;;5054507;28;20979;-62
2023/07/19 10:35:49;;;;;;;4.13;2.73;;;29.30;77.00;;;;;;5054491;28;20485;-62
2023/07/19 10:38:18;;;;;;;4.10;2.70;;;29.50;78.60;;;;;;5054502;28;20846;-62
2023/07/19 10:40:48;;;;;;;3.13;2.60;;;29.70;74.90;;;;;;5036531;28;20468;-62
2023/07/19 10:43:17;;;;;;;4.83;3.03;;;29.90;76.00;;;;;;5054294;28;20887;-62
2023/07/19 10:45:45;;;;;;;3.60;2.60;;;30.20;74.90;;;;;;5054586;28;20935;-62
2023/07/19 10:48:12;;;;;;;4.97;3.00;;;30.40;73.50;;;;;;5054415;28;20457;-62
2023/07/19 10:50:39;;;;;;;4.10;2.83;;;30.30;73.50;;;;;;5054022;28;20453;-62
2023/07/19 10:53:07;;;;;;;3.60;2.77;;;30.20;74.40;;;;;;5054331;28;20542;-64
2023/07/19 10:55:35;;;;;;;3.10;2.57;;;30.10;74.20;;;;;;5054120;28;20497;-62
2023/07/19 10:58:03;;;;;;;3.63;2.50;;;30.10;74.80;;;;;;5054444;28;20536;-62
2023/07/19 11:00:35;;;;;;;3.67;2.60;;;30.00;74.60;;;;;;5054298;28;20461;-62
2023/07/19 11:03:02;;;;;;;5.10;2.97;;;30.10;72.90;;;;;;5054341;28;20489;-65
2023/07/19 11:05:32;;;;;;;3.90;2.50;;;30.30;72.20;;;;;;5054295;28;20811;-63
2023/07/19 11:07:59;;;;;;;4.30;2.60;;;30.20;72.60;;;;;;5054323;28;20932;-63
2023/07/19 11:10:28;;;;;;;3.53;2.60;;;30.50;72.00;;;;;;5054130;28;20457;-63
2023/07/19 11:12:56;;;;;;;3.73;2.73;;;30.70;72.10;;;;;;5054424;28;20454;-63
2023/07/19 11:15:26;;;;;;;3.20;2.47;;;30.90;72.30;;;;;;5054196;28;20813;-64
2023/07/19 11:17:57;;;;;;;3.60;2.77;;;30.80;70.00;;;;;;5054332;28;20635;-63
2023/07/19 11:20:35;;;;;;;3.73;2.40;;;30.90;70.30;;;;;;5036201;28;20485;-64
2023/07/19 11:23:08;;;;;;;3.20;2.50;;;30.80;69.90;;;;;;5053978;28;20481;-63
2023/07/19 11:25:39;;;;;;;3.80;2.30;;;30.50;70.80;;;;;;5053678;28;20457;-63
2023/07/19 11:28:06;;;;;;;8.40;2.87;;;30.50;70.70;;;;;;5053861;28;20461;-63
2023/07/19 11:30:38;;;;;;;3.73;2.63;;;30.40;70.20;;;;;;5052825;28;20545;-63
2023/07/19 11:33:07;;;;;;;3.63;2.50;;;30.30;70.30;;;;;;5053672;28;20446;-63
2023/07/19 11:35:34;;;;;;;2.97;2.33;;;30.50;70.10;;;;;;5053577;28;20461;-63
2023/07/19 11:38:03;;;;;;;2.67;2.37;;;30.80;71.00;;;;;;5053690;28;20466;-63
2023/07/19 11:40:30;;;;;;;3.40;2.40;;;30.70;70.80;;;;;;5053666;28;20499;-63
2023/07/19 11:42:59;;;;;;;6.00;2.23;;;30.70;71.40;;;;;;5035834;28;20504;-63
2023/07/19 11:45:27;;;;;;;2.70;2.40;;;30.80;71.50;;;;;;5035695;28;20535;-63
2023/07/19 11:47:56;;;;;;;2.73;2.20;;;30.60;71.00;;;;;;5053486;28;20462;-63
2023/07/19 11:50:25;;;;;;;5.00;2.47;;;30.40;71.80;;;;;;5053424;28;20450;-63
2023/07/19 11:52:55;;;;;;;4.93;2.80;;;30.40;72.10;;;;;;5053209;28;20466;-64
2023/07/19 11:55:24;;;;;;;3.30;2.30;;;30.50;72.90;;;;;;5053250;28;20465;-63
2023/07/19 11:57:53;;;;;;;3.97;2.50;;;30.60;72.40;;;;;;5053362;28;20924;-64
2023/07/19 12:00:22;;;;;;;3.17;2.60;;;30.80;70.90;;;;;;5053193;28;20458;-64
2023/07/19 12:02:52;;;;;;;2.93;2.37;;;30.80;70.90;;;;;;5052372;28;20835;-63
2023/07/19 12:05:23;;;;;;;4.27;2.80;;;30.70;69.50;;;;;;5052931;28;20490;-63
2023/07/19 12:07:52;;;;;;;3.47;2.47;;;30.80;71.70;;;;;;5072776;28;20460;-64
2023/07/19 12:10:21;;;;;;;3.67;2.57;;;30.80;72.10;;;;;;5072928;28;20464;-63
2023/07/19 12:12:49;;;;;;;4.80;2.70;;;30.90;73.30;;;;;;5073065;28;20460;-64
2023/07/19 12:15:17;;;;;;;3.43;2.70;;;30.90;70.00;;;;;;5055049;28;20457;-63
2023/07/19 12:17:45;;;;;;;3.20;2.60;;;30.80;70.80;;;;;;5072761;28;20449;-63
2023/07/19 12:20:13;;;;;;;3.23;2.57;;;30.50;70.50;;;;;;5072499;28;20464;-63
2023/07/19 12:22:42;;;;;;;6.13;2.80;;;30.40;70.60;;;;;;5072153;28;20994;-66
2023/07/19 12:25:11;;;;;;;4.50;2.50;;;30.80;71.60;;;;;;5072184;28;20457;-62
2023/07/19 12:27:39;;;;;;;3.30;2.47;;;30.90;71.00;;;;;;5072739;28;20460;-64
2023/07/19 12:30:09;;;;;;;3.30;2.50;;;31.20;73.00;;;;;;5072585;28;20955;-65
2023/07/19 12:32:38;;;;;;;4.40;2.50;;;31.30;70.40;;;;;;5055275;28;20457;-65
2023/07/19 12:35:05;;;;;;;3.60;2.40;;;31.30;69.70;;;;;;5072569;28;21139;-65
2023/07/19 12:37:33;;;;;;;4.63;2.57;;;31.30;69.00;;;;;;5072575;28;20914;-65
2023/07/19 12:40:01;;;;;;;3.30;2.40;;;31.30;71.50;;;;;;5072678;28;20506;-65
2023/07/19 12:42:29;;;;;;;2.87;2.30;;;31.40;69.70;;;;;;5071565;28;20481;-65
2023/07/19 12:44:57;;;;;;;5.00;2.90;;;31.60;70.10;;;;;;5072608;28;20548;-65
2023/07/19 12:47:24;;;;;;;3.93;2.50;;;31.50;70.90;;;;;;5072536;28;20460;-65
2023/07/19 12:49:52;;;;;;;4.43;2.50;;;31.40;70.80;;;;;;5072225;28;20472;-65
2023/07/19 12:52:20;;;;;;;6.00;3.07;;;31.40;71.10;;;;;;5055005;28;20457;-65